sensor_id;sensor_type;location;lat;lon;timestamp;temperature;humidity
41694;DHT22;27377;50.666;9.150;2023-04-09T00:01:54;4.10;99.90
41694;DHT22;27377;50.666;9.150;2023-04-09T00:04:20;4.10;99.90
41694;DHT22;27377;50.666;9.150;2023-04-09T00:06:48;4.10;99.90
41694;DHT22;27377;50.666;9.150;2023-04-09T00:09:13;4.10;99.90
41694;DHT22;27377;50.666;9.150;2023-04-09T00:11:39;4.20;99.90
41694;DHT22;27377;50.666;9.150;2023-04-09T00:14:05;4.20;99.90
41694;DHT22;27377;50.666;9.150;2023-04-09T00:16:30;4.10;99.90
41694;DHT22;27377;50.666;9.150;2023-04-09T00:18:56;4.10;99.90
41694;DHT22;27377;50.666;9.150;2023-04-09T00:21:21;4.20;99.90
41694;DHT22;27377;50.666;9.150;2023-04-09T00:23:47;4.20;99.90
41694;DHT22;27377;50.666;9.150;2023-04-09T00:26:12;4.30;99.90
41694;DHT22;27377;50.666;9.150;2023-04-09T00:28:38;4.30;99.90
41694;DHT22;27377;50.666;9.150;2023-04-09T00:31:04;4.30;99.90
41694;DHT22;27377;50.666;9.150;2023-04-09T00:33:29;4.40;99.90
41694;DHT22;27377;50.666;9.150;2023-04-09T00:35:55;4.40;99.90
41694;DHT22;27377;50.666;9.150;2023-04-09T00:38:21;4.40;99.90
41694;DHT22;27377;50.666;9.150;2023-04-09T00:40:50;4.40;99.90
41694;DHT22;27377;50.666;9.150;2023-04-09T00:43:18;4.30;99.90
41694;DHT22;27377;50.666;9.150;2023-04-09T00:45:45;4.30;99.90
41694;DHT22;27377;50.666;9.150;2023-04-09T00:48:12;4.30;99.90
41694;DHT22;27377;50.666;9.150;2023-04-09T00:50:37;4.30;99.90
41694;DHT22;27377;50.666;9.150;2023-04-09T00:53:04;4.30;99.90
41694;DHT22;27377;50.666;9.150;2023-04-09T00:55:30;4.40;99.90
41694;DHT22;27377;50.666;9.150;2023-04-09T00:57:56;4.30;99.90
41694;DHT22;27377;50.666;9.150;2023-04-09T01:00:22;4.30;99.90
41694;DHT22;27377;50.666;9.150;2023-04-09T01:02:48;4.30;99.90
41694;DHT22;27377;50.666;9.150;2023-04-09T01:05:15;4.40;99.90
41694;DHT22;27377;50.666;9.150;2023-04-09T01:07:58;4.30;99.90
41694;DHT22;27377;50.666;9.150;2023-04-09T01:10:37;4.20;99.90
41694;DHT22;27377;50.666;9.150;2023-04-09T01:13:10;4.20;99.90
41694;DHT22;27377;50.666;9.150;2023-04-09T01:15:48;4.30;99.90
41694;DHT22;27377;50.666;9.150;2023-04-09T01:26:20;4.40;99.90
41694;DHT22;27377;50.666;9.150;2023-04-09T01:28:48;4.50;99.90
41694;DHT22;27377;50.666;9.150;2023-04-09T01:31:22;4.40;99.90
41694;DHT22;27377;50.666;9.150;2023-04-09T01:33:50;4.30;99.90
41694;DHT22;27377;50.666;9.150;2023-04-09T01:36:17;4.30;99.90
41694;DHT22;27377;50.666;9.150;2023-04-09T01:38:45;4.30;99.90
41694;DHT22;27377;50.666;9.150;2023-04-09T01:41:18;4.30;99.90
41694;DHT22;27377;50.666;9.150;2023-04-09T01:43:47;4.30;99.90
41694;DHT22;27377;50.666;9.150;2023-04-09T01:46:14;4.40;99.90
41694;DHT22;27377;50.666;9.150;2023-04-09T01:48:41;4.40;99.90
41694;DHT22;27377;50.666;9.150;2023-04-09T01:51:07;4.50;99.90
41694;DHT22;27377;50.666;9.150;2023-04-09T01:53:32;4.50;99.90
41694;DHT22;27377;50.666;9.150;2023-04-09T01:55:58;4.50;99.90
41694;DHT22;27377;50.666;9.150;2023-04-09T01:58:26;4.50;99.90
41694;DHT22;27377;50.666;9.150;2023-04-09T02:00:57;4.50;99.90
41694;DHT22;27377;50.666;9.150;2023-04-09T02:03:27;4.50;99.90
41694;DHT22;27377;50.666;9.150;2023-04-09T02:06:24;4.50;99.90
41694;DHT22;27377;50.666;9.150;2023-04-09T02:08:52;4.60;99.90
41694;DHT22;27377;50.666;9.150;2023-04-09T02:11:19;4.50;99.90
41694;DHT22;27377;50.666;9.150;2023-04-09T02:13:45;4.50;99.90
41694;DHT22;27377;50.666;9.150;2023-04-09T02:16:14;4.50;99.90
41694;DHT22;27377;50.666;9.150;2023-04-09T02:18:40;4.50;99.90
41694;DHT22;27377;50.666;9.150;2023-04-09T02:21:06;4.60;99.90
41694;DHT22;27377;50.666;9.150;2023-04-09T02:23:31;4.60;99.90
41694;DHT22;27377;50.666;9.150;2023-04-09T02:25:58;4.60;99.90
41694;DHT22;27377;50.666;9.150;2023-04-09T02:28:24;4.60;99.90
41694;DHT22;27377;50.666;9.150;2023-04-09T02:30:49;4.60;99.90
41694;DHT22;27377;50.666;9.150;2023-04-09T02:33:15;4.60;99.90
41694;DHT22;27377;50.666;9.150;2023-04-09T02:35:40;4.60;99.90
41694;DHT22;27377;50.666;9.150;2023-04-09T02:38:07;4.60;99.90
41694;DHT22;27377;50.666;9.150;2023-04-09T02:40:40;4.50;99.90
41694;DHT22;27377;50.666;9.150;2023-04-09T02:43:06;4.50;99.90
41694;DHT22;27377;50.666;9.150;2023-04-09T02:45:32;4.50;99.90
41694;DHT22;27377;50.666;9.150;2023-04-09T02:47:57;4.50;99.90
41694;DHT22;27377;50.666;9.150;2023-04-09T02:50:23;4.50;99.90
41694;DHT22;27377;50.666;9.150;2023-04-09T02:52:48;4.50;99.90
41694;DHT22;27377;50.666;9.150;2023-04-09T02:55:15;4.50;99.90
41694;DHT22;27377;50.666;9.150;2023-04-09T02:57:40;4.50;99.90
41694;DHT22;27377;50.666;9.150;2023-04-09T03:00:07;4.50;99.90
41694;DHT22;27377;50.666;9.150;2023-04-09T03:02:33;4.50;99.90
41694;DHT22;27377;50.666;9.150;2023-04-09T03:04:58;4.60;99.90
41694;DHT22;27377;50.666;9.150;2023-04-09T03:07:24;4.60;99.90
41694;DHT22;27377;50.666;9.150;2023-04-09T03:09:49;4.60;99.90
41694;DHT22;27377;50.666;9.150;2023-04-09T03:12:15;4.60;99.90
41694;DHT22;27377;50.666;9.150;2023-04-09T03:14:41;4.60;99.90
41694;DHT22;27377;50.666;9.150;2023-04-09T03:17:06;4.60;99.90
41694;DHT22;27377;50.666;9.150;2023-04-09T03:19:32;4.60;99.90
41694;DHT22;27377;50.666;9.150;2023-04-09T03:21:58;4.60;99.90
41694;DHT22;27377;50.666;9.150;2023-04-09T03:24:23;4.60;99.90
41694;DHT22;27377;50.666;9.150;2023-04-09T03:26:49;4.60;99.90
41694;DHT22;27377;50.666;9.150;2023-04-09T03:29:14;4.60;99.90
41694;DHT22;27377;50.666;9.150;2023-04-09T03:31:40;4.60;99.90
41694;DHT22;27377;50.666;9.150;2023-04-09T03:34:06;4.60;99.90
41694;DHT22;27377;50.666;9.150;2023-04-09T03:36:31;4.60;99.90
41694;DHT22;27377;50.666;9.150;2023-04-09T03:38:57;4.70;99.90
41694;DHT22;27377;50.666;9.150;2023-04-09T03:41:22;4.70;99.90
41694;DHT22;27377;50.666;9.150;2023-04-09T03:43:48;4.70;99.90
41694;DHT22;27377;50.666;9.150;2023-04-09T03:46:14;4.70;99.90
41694;DHT22;27377;50.666;9.150;2023-04-09T03:48:40;4.70;99.90
41694;DHT22;27377;50.666;9.150;2023-04-09T03:51:13;4.70;99.90
41694;DHT22;27377;50.666;9.150;2023-04-09T03:53:40;4.70;99.90
41694;DHT22;27377;50.666;9.150;2023-04-09T03:56:06;4.70;99.90
41694;DHT22;27377;50.666;9.150;2023-04-09T03:58:32;4.70;99.90
41694;DHT22;27377;50.666;9.150;2023-04-09T04:00:58;4.70;99.90
41694;DHT22;27377;50.666;9.150;2023-04-09T04:03:24;4.70;99.90
41694;DHT22;27377;50.666;9.150;2023-04-09T04:05:49;4.70;99.90
41694;DHT22;27377;50.666;9.150;2023-04-09T04:08:15;4.70;99.90
41694;DHT22;27377;50.666;9.150;2023-04-09T04:10:40;4.70;99.90
41694;DHT22;27377;50.666;9.150;2023-04-09T04:13:06;4.70;99.90
41694;DHT22;27377;50.666;9.150;2023-04-09T04:15:41;4.70;99.90
41694;DHT22;27377;50.666;9.150;2023-04-09T04:18:07;4.70;99.90
41694;DHT22;27377;50.666;9.150;2023-04-09T04:20:32;4.70;99.90
41694;DHT22;27377;50.666;9.150;2023-04-09T04:22:58;4.70;99.90
41694;DHT22;27377;50.666;9.150;2023-04-09T04:25:27;4.70;99.90
41694;DHT22;27377;50.666;9.150;2023-04-09T04:27:53;4.80;99.90
41694;DHT22;27377;50.666;9.150;2023-04-09T04:30:20;4.80;99.90
41694;DHT22;27377;50.666;9.150;2023-04-09T04:32:46;4.90;99.90
41694;DHT22;27377;50.666;9.150;2023-04-09T04:35:12;4.90;99.90
41694;DHT22;27377;50.666;9.150;2023-04-09T04:37:38;5.00;99.90
41694;DHT22;27377;50.666;9.150;2023-04-09T04:40:08;5.00;99.90
41694;DHT22;27377;50.666;9.150;2023-04-09T04:42:34;5.10;99.90
41694;DHT22;27377;50.666;9.150;2023-04-09T04:44:59;5.10;99.90
41694;DHT22;27377;50.666;9.150;2023-04-09T04:47:28;5.10;99.90
41694;DHT22;27377;50.666;9.150;2023-04-09T04:49:53;5.10;99.90
41694;DHT22;27377;50.666;9.150;2023-04-09T04:52:19;5.10;99.90
41694;DHT22;27377;50.666;9.150;2023-04-09T04:54:44;5.10;99.90
41694;DHT22;27377;50.666;9.150;2023-04-09T04:57:10;5.20;99.90
41694;DHT22;27377;50.666;9.150;2023-04-09T04:59:37;5.20;99.90
41694;DHT22;27377;50.666;9.150;2023-04-09T05:02:06;5.20;99.90
41694;DHT22;27377;50.666;9.150;2023-04-09T05:04:32;5.20;99.90
41694;DHT22;27377;50.666;9.150;2023-04-09T05:06:57;5.20;99.90
41694;DHT22;27377;50.666;9.150;2023-04-09T05:09:23;5.20;99.90
41694;DHT22;27377;50.666;9.150;2023-04-09T05:11:48;5.20;99.90
41694;DHT22;27377;50.666;9.150;2023-04-09T05:14:14;5.20;99.90
41694;DHT22;27377;50.666;9.150;2023-04-09T05:16:39;5.20;99.90
41694;DHT22;27377;50.666;9.150;2023-04-09T05:19:05;5.20;99.90
41694;DHT22;27377;50.666;9.150;2023-04-09T05:21:30;5.20;99.90
41694;DHT22;27377;50.666;9.150;2023-04-09T05:23:57;5.20;99.90
41694;DHT22;27377;50.666;9.150;2023-04-09T05:26:23;5.20;99.90
41694;DHT22;27377;50.666;9.150;2023-04-09T05:28:49;5.20;99.90
41694;DHT22;27377;50.666;9.150;2023-04-09T05:31:14;5.20;99.90
41694;DHT22;27377;50.666;9.150;2023-04-09T05:33:41;5.20;99.90
41694;DHT22;27377;50.666;9.150;2023-04-09T05:36:07;5.20;99.90
41694;DHT22;27377;50.666;9.150;2023-04-09T05:38:33;5.20;99.90
41694;DHT22;27377;50.666;9.150;2023-04-09T05:40:58;5.20;99.90
41694;DHT22;27377;50.666;9.150;2023-04-09T05:43:25;5.20;99.90
41694;DHT22;27377;50.666;9.150;2023-04-09T05:45:51;5.30;99.90
41694;DHT22;27377;50.666;9.150;2023-04-09T05:48:17;5.30;99.90
41694;DHT22;27377;50.666;9.150;2023-04-09T05:50:49;5.40;99.90
41694;DHT22;27377;50.666;9.150;2023-04-09T05:53:17;5.40;99.90
41694;DHT22;27377;50.666;9.150;2023-04-09T05:55:43;5.40;99.90
41694;DHT22;27377;50.666;9.150;2023-04-09T05:58:10;5.50;99.90
41694;DHT22;27377;50.666;9.150;2023-04-09T06:00:35;5.50;99.90
41694;DHT22;27377;50.666;9.150;2023-04-09T06:03:01;5.50;99.90
41694;DHT22;27377;50.666;9.150;2023-04-09T06:05:26;5.50;99.90
41694;DHT22;27377;50.666;9.150;2023-04-09T06:07:53;5.50;99.90
41694;DHT22;27377;50.666;9.150;2023-04-09T06:10:19;5.60;99.90
41694;DHT22;27377;50.666;9.150;2023-04-09T06:12:44;5.60;99.90
41694;DHT22;27377;50.666;9.150;2023-04-09T06:15:10;5.60;99.90
41694;DHT22;27377;50.666;9.150;2023-04-09T06:17:35;5.70;99.90
41694;DHT22;27377;50.666;9.150;2023-04-09T06:20:04;5.70;99.90
41694;DHT22;27377;50.666;9.150;2023-04-09T06:22:30;5.70;99.90
41694;DHT22;27377;50.666;9.150;2023-04-09T06:24:56;5.70;99.90
41694;DHT22;27377;50.666;9.150;2023-04-09T06:27:22;5.80;99.90
41694;DHT22;27377;50.666;9.150;2023-04-09T06:29:47;5.80;99.90
41694;DHT22;27377;50.666;9.150;2023-04-09T06:32:13;5.80;99.90
41694;DHT22;27377;50.666;9.150;2023-04-09T06:34:38;5.90;99.90
41694;DHT22;27377;50.666;9.150;2023-04-09T06:37:06;5.80;99.90
41694;DHT22;27377;50.666;9.150;2023-04-09T06:39:32;5.90;99.90
41694;DHT22;27377;50.666;9.150;2023-04-09T06:41:57;5.90;99.90
41694;DHT22;27377;50.666;9.150;2023-04-09T06:44:23;5.90;99.90
41694;DHT22;27377;50.666;9.150;2023-04-09T06:46:50;6.00;99.90
41694;DHT22;27377;50.666;9.150;2023-04-09T06:49:15;6.00;99.90
41694;DHT22;27377;50.666;9.150;2023-04-09T06:51:41;6.00;99.90
41694;DHT22;27377;50.666;9.150;2023-04-09T06:54:06;6.10;99.90
41694;DHT22;27377;50.666;9.150;2023-04-09T06:56:33;6.10;99.90
41694;DHT22;27377;50.666;9.150;2023-04-09T06:59:01;6.10;99.90
41694;DHT22;27377;50.666;9.150;2023-04-09T07:01:27;6.10;99.90
41694;DHT22;27377;50.666;9.150;2023-04-09T07:03:52;6.20;99.90
41694;DHT22;27377;50.666;9.150;2023-04-09T07:06:21;6.20;99.90
41694;DHT22;27377;50.666;9.150;2023-04-09T07:08:46;6.20;99.90
41694;DHT22;27377;50.666;9.150;2023-04-09T07:11:12;6.20;99.90
41694;DHT22;27377;50.666;9.150;2023-04-09T07:13:37;6.20;99.90
41694;DHT22;27377;50.666;9.150;2023-04-09T07:16:03;6.30;99.90
41694;DHT22;27377;50.666;9.150;2023-04-09T07:18:29;6.30;99.90
41694;DHT22;27377;50.666;9.150;2023-04-09T07:20:55;6.30;99.90
41694;DHT22;27377;50.666;9.150;2023-04-09T07:23:20;6.30;99.90
41694;DHT22;27377;50.666;9.150;2023-04-09T07:25:46;6.30;99.90
41694;DHT22;27377;50.666;9.150;2023-04-09T07:28:12;6.40;99.90
41694;DHT22;27377;50.666;9.150;2023-04-09T07:30:38;6.40;99.90
41694;DHT22;27377;50.666;9.150;2023-04-09T07:33:04;6.40;99.90
41694;DHT22;27377;50.666;9.150;2023-04-09T07:35:29;6.40;99.90
41694;DHT22;27377;50.666;9.150;2023-04-09T07:37:56;6.40;99.90
41694;DHT22;27377;50.666;9.150;2023-04-09T07:40:23;6.50;99.90
41694;DHT22;27377;50.666;9.150;2023-04-09T07:42:48;6.50;99.90
41694;DHT22;27377;50.666;9.150;2023-04-09T07:45:15;6.50;99.90
41694;DHT22;27377;50.666;9.150;2023-04-09T07:47:41;6.50;99.90
41694;DHT22;27377;50.666;9.150;2023-04-09T07:50:07;6.50;99.90
41694;DHT22;27377;50.666;9.150;2023-04-09T07:52:33;6.60;99.90
41694;DHT22;27377;50.666;9.150;2023-04-09T07:54:58;6.60;99.90
41694;DHT22;27377;50.666;9.150;2023-04-09T07:57:24;6.60;99.90
41694;DHT22;27377;50.666;9.150;2023-04-09T07:59:50;6.70;99.90
41694;DHT22;27377;50.666;9.150;2023-04-09T08:02:15;6.70;99.90
41694;DHT22;27377;50.666;9.150;2023-04-09T08:04:41;6.70;99.90
41694;DHT22;27377;50.666;9.150;2023-04-09T08:07:07;6.70;99.90
41694;DHT22;27377;50.666;9.150;2023-04-09T08:09:33;6.70;99.90
41694;DHT22;27377;50.666;9.150;2023-04-09T08:11:58;6.80;99.90
41694;DHT22;27377;50.666;9.150;2023-04-09T08:14:24;6.80;99.90
41694;DHT22;27377;50.666;9.150;2023-04-09T08:16:50;6.80;99.90
41694;DHT22;27377;50.666;9.150;2023-04-09T08:19:16;6.80;99.90
41694;DHT22;27377;50.666;9.150;2023-04-09T08:21:42;6.90;99.90
41694;DHT22;27377;50.666;9.150;2023-04-09T08:24:11;6.90;99.90
41694;DHT22;27377;50.666;9.150;2023-04-09T08:26:38;6.90;99.90
41694;DHT22;27377;50.666;9.150;2023-04-09T08:29:04;6.90;99.90
41694;DHT22;27377;50.666;9.150;2023-04-09T08:31:29;6.90;99.90
41694;DHT22;27377;50.666;9.150;2023-04-09T08:33:55;6.90;99.90
41694;DHT22;27377;50.666;9.150;2023-04-09T08:36:21;7.00;99.90
41694;DHT22;27377;50.666;9.150;2023-04-09T08:38:47;7.00;99.90
41694;DHT22;27377;50.666;9.150;2023-04-09T08:41:23;7.00;99.90
41694;DHT22;27377;50.666;9.150;2023-04-09T08:43:50;7.10;99.90
41694;DHT22;27377;50.666;9.150;2023-04-09T08:46:17;7.10;99.90
41694;DHT22;27377;50.666;9.150;2023-04-09T08:48:47;7.10;99.90
41694;DHT22;27377;50.666;9.150;2023-04-09T08:51:18;7.20;99.90
41694;DHT22;27377;50.666;9.150;2023-04-09T08:53:48;7.20;99.90
41694;DHT22;27377;50.666;9.150;2023-04-09T08:56:18;7.20;99.90
41694;DHT22;27377;50.666;9.150;2023-04-09T08:58:45;7.20;99.90
41694;DHT22;27377;50.666;9.150;2023-04-09T09:01:37;7.30;99.90
41694;DHT22;27377;50.666;9.150;2023-04-09T09:04:04;7.30;99.90
41694;DHT22;27377;50.666;9.150;2023-04-09T09:06:31;7.30;99.90
41694;DHT22;27377;50.666;9.150;2023-04-09T09:09:08;7.30;99.90
41694;DHT22;27377;50.666;9.150;2023-04-09T09:11:39;7.30;99.90
41694;DHT22;27377;50.666;9.150;2023-04-09T09:14:13;7.40;99.90
41694;DHT22;27377;50.666;9.150;2023-04-09T09:16:41;7.40;99.90
41694;DHT22;27377;50.666;9.150;2023-04-09T09:19:09;7.50;99.90
41694;DHT22;27377;50.666;9.150;2023-04-09T09:21:35;7.50;99.90
41694;DHT22;27377;50.666;9.150;2023-04-09T09:24:02;7.60;99.90
41694;DHT22;27377;50.666;9.150;2023-04-09T09:26:40;7.60;99.90
41694;DHT22;27377;50.666;9.150;2023-04-09T09:29:06;7.70;99.90
41694;DHT22;27377;50.666;9.150;2023-04-09T09:31:48;7.70;99.90
41694;DHT22;27377;50.666;9.150;2023-04-09T09:34:15;7.80;99.90
41694;DHT22;27377;50.666;9.150;2023-04-09T09:36:44;7.80;99.90
41694;DHT22;27377;50.666;9.150;2023-04-09T09:39:11;7.80;99.90
41694;DHT22;27377;50.666;9.150;2023-04-09T09:41:38;7.90;99.90
41694;DHT22;27377;50.666;9.150;2023-04-09T09:44:06;8.00;99.90
41694;DHT22;27377;50.666;9.150;2023-04-09T09:46:37;8.00;99.90
41694;DHT22;27377;50.666;9.150;2023-04-09T09:49:04;8.00;99.90
41694;DHT22;27377;50.666;9.150;2023-04-09T09:51:31;8.00;99.90
41694;DHT22;27377;50.666;9.150;2023-04-09T09:53:57;8.00;99.90
41694;DHT22;27377;50.666;9.150;2023-04-09T09:56:29;8.00;99.90
41694;DHT22;27377;50.666;9.150;2023-04-09T10:01:45;8.10;99.90
41694;DHT22;27377;50.666;9.150;2023-04-09T10:04:14;8.10;99.90
41694;DHT22;27377;50.666;9.150;2023-04-09T10:06:42;8.10;99.90
41694;DHT22;27377;50.666;9.150;2023-04-09T10:09:09;8.10;99.90
41694;DHT22;27377;50.666;9.150;2023-04-09T10:11:36;8.10;99.90
41694;DHT22;27377;50.666;9.150;2023-04-09T10:14:03;8.10;99.90
41694;DHT22;27377;50.666;9.150;2023-04-09T10:16:30;8.20;99.90
41694;DHT22;27377;50.666;9.150;2023-04-09T10:18:57;8.20;99.90
41694;DHT22;27377;50.666;9.150;2023-04-09T10:23:52;8.20;99.90
41694;DHT22;27377;50.666;9.150;2023-04-09T10:26:18;8.20;99.90
41694;DHT22;27377;50.666;9.150;2023-04-09T10:28:44;8.30;99.90
41694;DHT22;27377;50.666;9.150;2023-04-09T10:31:10;8.20;99.90
41694;DHT22;27377;50.666;9.150;2023-04-09T10:33:37;8.20;99.90
41694;DHT22;27377;50.666;9.150;2023-04-09T10:36:05;8.20;99.90
41694;DHT22;27377;50.666;9.150;2023-04-09T10:38:35;8.20;99.90
41694;DHT22;27377;50.666;9.150;2023-04-09T10:43:36;8.30;99.90
41694;DHT22;27377;50.666;9.150;2023-04-09T10:46:04;8.30;99.90
41694;DHT22;27377;50.666;9.150;2023-04-09T10:48:32;8.30;99.90
41694;DHT22;27377;50.666;9.150;2023-04-09T10:50:58;8.40;99.90
41694;DHT22;27377;50.666;9.150;2023-04-09T10:53:26;8.40;99.90
41694;DHT22;27377;50.666;9.150;2023-04-09T10:55:52;8.40;99.90
41694;DHT22;27377;50.666;9.150;2023-04-09T10:58:18;8.40;99.90
41694;DHT22;27377;50.666;9.150;2023-04-09T11:00:46;8.50;99.90
41694;DHT22;27377;50.666;9.150;2023-04-09T11:03:28;8.50;99.90
41694;DHT22;27377;50.666;9.150;2023-04-09T11:06:04;8.60;99.90
41694;DHT22;27377;50.666;9.150;2023-04-09T11:08:33;8.60;99.90
41694;DHT22;27377;50.666;9.150;2023-04-09T11:10:59;8.60;99.90
41694;DHT22;27377;50.666;9.150;2023-04-09T11:13:26;8.60;99.90
41694;DHT22;27377;50.666;9.150;2023-04-09T11:15:53;8.60;99.90
41694;DHT22;27377;50.666;9.150;2023-04-09T11:18:24;8.60;99.90
41694;DHT22;27377;50.666;9.150;2023-04-09T11:21:01;8.70;99.90
41694;DHT22;27377;50.666;9.150;2023-04-09T11:23:28;8.70;99.90
41694;DHT22;27377;50.666;9.150;2023-04-09T11:25:54;8.70;99.90
41694;DHT22;27377;50.666;9.150;2023-04-09T11:28:23;8.70;99.90
41694;DHT22;27377;50.666;9.150;2023-04-09T11:30:50;8.70;99.90
41694;DHT22;27377;50.666;9.150;2023-04-09T11:33:16;8.70;99.90
41694;DHT22;27377;50.666;9.150;2023-04-09T11:35:42;8.70;99.90
41694;DHT22;27377;50.666;9.150;2023-04-09T11:38:09;8.70;99.90
41694;DHT22;27377;50.666;9.150;2023-04-09T11:40:41;8.80;99.90
41694;DHT22;27377;50.666;9.150;2023-04-09T11:43:17;8.80;99.90
41694;DHT22;27377;50.666;9.150;2023-04-09T11:45:42;8.90;99.90
41694;DHT22;27377;50.666;9.150;2023-04-09T11:48:09;8.90;99.90
41694;DHT22;27377;50.666;9.150;2023-04-09T11:50:36;8.90;99.90
41694;DHT22;27377;50.666;9.150;2023-04-09T11:53:15;8.90;99.90
41694;DHT22;27377;50.666;9.150;2023-04-09T11:55:41;8.90;99.90
41694;DHT22;27377;50.666;9.150;2023-04-09T11:58:09;9.00;99.90
41694;DHT22;27377;50.666;9.150;2023-04-09T12:00:39;9.00;99.90
41694;DHT22;27377;50.666;9.150;2023-04-09T12:03:05;9.00;99.90
41694;DHT22;27377;50.666;9.150;2023-04-09T12:05:33;9.00;99.90
41694;DHT22;27377;50.666;9.150;2023-04-09T12:08:03;9.00;99.90
41694;DHT22;27377;50.666;9.150;2023-04-09T12:10:32;9.00;99.90
41694;DHT22;27377;50.666;9.150;2023-04-09T12:13:15;9.00;99.90
41694;DHT22;27377;50.666;9.150;2023-04-09T12:15:41;9.00;99.90
41694;DHT22;27377;50.666;9.150;2023-04-09T12:18:12;9.00;99.90
41694;DHT22;27377;50.666;9.150;2023-04-09T12:20:42;9.00;99.90
41694;DHT22;27377;50.666;9.150;2023-04-09T12:23:09;9.10;99.90
41694;DHT22;27377;50.666;9.150;2023-04-09T12:25:40;9.10;99.90
41694;DHT22;27377;50.666;9.150;2023-04-09T12:28:09;9.10;99.90
41694;DHT22;27377;50.666;9.150;2023-04-09T12:30:34;9.10;99.90
41694;DHT22;27377;50.666;9.150;2023-04-09T12:33:01;9.20;99.90
41694;DHT22;27377;50.666;9.150;2023-04-09T12:35:27;9.20;99.90
41694;DHT22;27377;50.666;9.150;2023-04-09T12:37:53;9.20;99.90
41694;DHT22;27377;50.666;9.150;2023-04-09T12:40:22;9.20;99.90
41694;DHT22;27377;50.666;9.150;2023-04-09T12:42:47;9.20;99.90
41694;DHT22;27377;50.666;9.150;2023-04-09T12:45:15;9.20;99.90
41694;DHT22;27377;50.666;9.150;2023-04-09T12:47:41;9.20;99.90
41694;DHT22;27377;50.666;9.150;2023-04-09T12:50:08;9.20;99.90
41694;DHT22;27377;50.666;9.150;2023-04-09T12:52:34;9.20;99.90
41694;DHT22;27377;50.666;9.150;2023-04-09T12:55:03;9.30;99.90
41694;DHT22;27377;50.666;9.150;2023-04-09T12:57:30;9.40;99.90
41694;DHT22;27377;50.666;9.150;2023-04-09T12:59:58;9.40;99.90
41694;DHT22;27377;50.666;9.150;2023-04-09T13:02:24;9.40;99.90
41694;DHT22;27377;50.666;9.150;2023-04-09T13:04:50;9.30;99.90
41694;DHT22;27377;50.666;9.150;2023-04-09T13:07:20;9.30;99.90
41694;DHT22;27377;50.666;9.150;2023-04-09T13:09:47;9.30;99.90
41694;DHT22;27377;50.666;9.150;2023-04-09T13:12:17;9.30;99.90
41694;DHT22;27377;50.666;9.150;2023-04-09T13:14:44;9.40;99.90
41694;DHT22;27377;50.666;9.150;2023-04-09T13:17:11;9.40;99.90
41694;DHT22;27377;50.666;9.150;2023-04-09T13:19:36;9.40;99.90
41694;DHT22;27377;50.666;9.150;2023-04-09T13:22:02;9.40;99.90
41694;DHT22;27377;50.666;9.150;2023-04-09T13:24:29;9.40;99.90
41694;DHT22;27377;50.666;9.150;2023-04-09T13:26:55;9.40;99.90
41694;DHT22;27377;50.666;9.150;2023-04-09T13:29:21;9.50;99.90
41694;DHT22;27377;50.666;9.150;2023-04-09T13:31:47;9.60;99.90
41694;DHT22;27377;50.666;9.150;2023-04-09T13:34:13;9.60;99.90
41694;DHT22;27377;50.666;9.150;2023-04-09T13:36:38;9.60;99.90
41694;DHT22;27377;50.666;9.150;2023-04-09T13:39:04;9.70;99.90
41694;DHT22;27377;50.666;9.150;2023-04-09T13:41:35;9.70;99.90
41694;DHT22;27377;50.666;9.150;2023-04-09T13:44:02;9.70;99.90
41694;DHT22;27377;50.666;9.150;2023-04-09T13:46:28;9.70;99.90
41694;DHT22;27377;50.666;9.150;2023-04-09T13:48:53;9.70;99.90
41694;DHT22;27377;50.666;9.150;2023-04-09T13:51:22;9.80;99.90
41694;DHT22;27377;50.666;9.150;2023-04-09T13:53:48;9.90;99.90
41694;DHT22;27377;50.666;9.150;2023-04-09T13:56:14;9.90;99.90
41694;DHT22;27377;50.666;9.150;2023-04-09T13:58:41;10.00;99.90
41694;DHT22;27377;50.666;9.150;2023-04-09T14:01:11;10.00;99.90
41694;DHT22;27377;50.666;9.150;2023-04-09T14:03:37;10.00;99.90
41694;DHT22;27377;50.666;9.150;2023-04-09T14:06:05;10.00;99.90
41694;DHT22;27377;50.666;9.150;2023-04-09T14:08:31;10.00;99.90
41694;DHT22;27377;50.666;9.150;2023-04-09T14:10:56;10.00;99.90
41694;DHT22;27377;50.666;9.150;2023-04-09T14:13:22;9.90;99.90
41694;DHT22;27377;50.666;9.150;2023-04-09T14:15:47;9.90;99.90
41694;DHT22;27377;50.666;9.150;2023-04-09T14:18:14;10.00;99.90
41694;DHT22;27377;50.666;9.150;2023-04-09T14:20:40;10.00;99.90
41694;DHT22;27377;50.666;9.150;2023-04-09T14:23:08;10.00;99.90
41694;DHT22;27377;50.666;9.150;2023-04-09T14:25:34;10.10;99.90
41694;DHT22;27377;50.666;9.150;2023-04-09T14:28:00;10.10;99.90
41694;DHT22;27377;50.666;9.150;2023-04-09T14:30:26;10.10;99.90
41694;DHT22;27377;50.666;9.150;2023-04-09T14:32:51;10.20;99.90
41694;DHT22;27377;50.666;9.150;2023-04-09T14:35:17;10.10;99.90
41694;DHT22;27377;50.666;9.150;2023-04-09T14:37:42;10.10;99.90
41694;DHT22;27377;50.666;9.150;2023-04-09T14:40:08;10.10;99.90
41694;DHT22;27377;50.666;9.150;2023-04-09T14:42:33;10.10;99.90
41694;DHT22;27377;50.666;9.150;2023-04-09T14:44:59;10.10;99.90
41694;DHT22;27377;50.666;9.150;2023-04-09T14:47:25;10.10;99.90
41694;DHT22;27377;50.666;9.150;2023-04-09T14:49:50;10.10;99.90
41694;DHT22;27377;50.666;9.150;2023-04-09T14:52:16;10.10;99.90
41694;DHT22;27377;50.666;9.150;2023-04-09T14:54:41;10.10;99.90
41694;DHT22;27377;50.666;9.150;2023-04-09T14:57:07;10.10;99.90
41694;DHT22;27377;50.666;9.150;2023-04-09T14:59:33;10.10;99.90
41694;DHT22;27377;50.666;9.150;2023-04-09T15:01:59;10.10;99.90
41694;DHT22;27377;50.666;9.150;2023-04-09T15:04:24;10.10;99.90
41694;DHT22;27377;50.666;9.150;2023-04-09T15:06:50;10.10;99.90
41694;DHT22;27377;50.666;9.150;2023-04-09T15:09:16;10.10;99.90
41694;DHT22;27377;50.666;9.150;2023-04-09T15:11:42;10.10;99.90
41694;DHT22;27377;50.666;9.150;2023-04-09T15:14:07;10.10;99.90
41694;DHT22;27377;50.666;9.150;2023-04-09T15:16:33;10.20;99.90
41694;DHT22;27377;50.666;9.150;2023-04-09T15:19:01;10.30;99.90
41694;DHT22;27377;50.666;9.150;2023-04-09T15:21:27;10.30;99.90
41694;DHT22;27377;50.666;9.150;2023-04-09T15:23:53;10.40;99.90
41694;DHT22;27377;50.666;9.150;2023-04-09T15:26:19;10.50;99.90
41694;DHT22;27377;50.666;9.150;2023-04-09T15:28:45;10.50;99.90
41694;DHT22;27377;50.666;9.150;2023-04-09T15:31:11;10.50;99.90
41694;DHT22;27377;50.666;9.150;2023-04-09T15:33:37;10.50;99.90
41694;DHT22;27377;50.666;9.150;2023-04-09T15:36:02;10.50;99.90
41694;DHT22;27377;50.666;9.150;2023-04-09T15:38:28;10.40;99.90
41694;DHT22;27377;50.666;9.150;2023-04-09T15:40:57;10.40;99.90
41694;DHT22;27377;50.666;9.150;2023-04-09T15:43:22;10.30;99.90
41694;DHT22;27377;50.666;9.150;2023-04-09T15:45:51;10.30;99.90
41694;DHT22;27377;50.666;9.150;2023-04-09T15:48:17;10.40;99.90
41694;DHT22;27377;50.666;9.150;2023-04-09T15:50:46;10.40;99.90
41694;DHT22;27377;50.666;9.150;2023-04-09T15:53:14;10.40;99.90
41694;DHT22;27377;50.666;9.150;2023-04-09T15:55:40;10.40;99.90
41694;DHT22;27377;50.666;9.150;2023-04-09T15:58:06;10.40;99.90
41694;DHT22;27377;50.666;9.150;2023-04-09T16:00:32;10.50;99.90